Terminal Aerodrome Forecast
Issued by NWS

Home | Current Version | Previous Version | Text Only | Print | Product List | Glossary On
Versions: 1 2 3 4 5 6 7 8 9 10 11 12 13 14 15 16 17 18 19 20 21 22
000
FTUS41 KPBZ 310200 AAB
TAFMGW
TAF AMD
KMGW 310203Z 3102/3124 VRB05KT P6SM SCT080
     FM310500 VRB05KT 3SM BR SCT080
     FM310800 VRB03KT 1SM BR SKC
      TEMPO 3109/3113 1/2SM FG OVC001
     FM311500 27012KT P6SM SCT060
     FM312300 VRB05KT P6SM SKC=

USA.gov is the U.S. government's official web portal to all federal, state and local government web resources and services.